Elisalex Schulte — 9V9154 — position and weather

sailwx.info

Track history (hours):
 
Tides and Currents Weather Stations Pressure Air Temp Water Temp Dewpoint Dewpoint Depression Visibility Wind Speed Wind Dir Waves Ship Positions

Elisalex Schulte

Last reported at 2017-Jun-29 04:43 UTC. Time now 2017-Jun-29 05:32 UTC.
Position N 54°07' W 005°03'.

Length 144 m; draft 8 m.

Type: Tanker. MMSI: 563052000.

Date/timePositionNaut miles runAvg speedWind from/ knotsBaromVisibWave heightAir tempDewpointWater temp
2017-Jun-29 04:43N 54°07' W 005°03'312.6
2017-Jun-29 04:30N 54°10' W 005°04'612.8
2017-Jun-29 04:00N 54°16' W 005°06'612.7
2017-Jun-29 03:30N 54°22' W 005°10'612.5
2017-Jun-29 03:00N 54°28' W 005°14'612.4
2017-Jun-29 02:30N 54°34' W 005°17'713.8
2017-Jun-29 02:00N 54°40' W 005°21'714.1
2017-Jun-29 01:30N 54°47' W 005°26'713.9
2017-Jun-29 01:00N 54°52' W 005°33'714.5
2017-Jun-29 00:30N 54°59' W 005°39'1014.5
2017-Jun-28 23:47N 55°07' W 005°50'515.8
2017-Jun-28 23:30N 55°11' W 005°54'816.5
2017-Jun-28 23:00N 55°18' W 006°02'714.3
2017-Jun-28 22:30N 55°22' W 006°13'714.3
2017-Jun-28 22:00N 55°24' W 006°25'713.5
2017-Jun-28 21:29N 55°27' W 006°36'613.3
2017-Jun-28 21:00N 55°29' W 006°46'612.1
2017-Jun-28 20:30N 55°34' W 006°54'612.0
2017-Jun-28 20:00N 55°39' W 006°59'611.9
2017-Jun-28 19:30N 55°44' W 007°04'22310.2
2017-Jun-27 21:38N 59°11' W 004°30'211.7
2017-Jun-27 21:28N 59°12' W 004°27'611.8
2017-Jun-27 21:00N 59°15' W 004°17'612.3
2017-Jun-27 20:30N 59°18' W 004°07'612.4
2017-Jun-27 20:00N 59°21' W 003°56'32011.8
2017-Jun-26 16:56N 57°53' E 005°55'511.4
2017-Jun-26 16:29N 57°52' E 006°05'511.1
2017-Jun-26 16:00N 57°51' E 006°15'1011.3
2017-Jun-26 15:09N 57°49' E 006°32'210.8
2017-Jun-26 14:59N 57°49' E 006°36'1111.1
2017-Jun-26 14:00N 57°48' E 006°56'611.3
2017-Jun-26 13:30N 57°47' E 007°07'611.1
2017-Jun-26 13:00N 57°47' E 007°17'510.9
2017-Jun-26 12:30N 57°47' E 007°27'2810.6
2017-Jun-26 09:50N 57°54' E 008°19'412.0
2017-Jun-26 09:30N 57°56' E 008°25'2011.8
2017-Jun-26 07:49N 58°07' E 008°56'412.4
2017-Jun-26 07:29N 58°10' E 009°01'57 8.8
2017-Jun-26 01:02N 58°16' E 010°49'0 7.4
2017-Jun-26 00:59N 58°16' E 010°50'4 7.7
2017-Jun-26 00:30N 58°15' E 010°56'4 7.5
2017-Jun-26 00:00N 58°14' E 011°04'4 7.0
2017-Jun-25 23:29N 58°14' E 011°10'3 6.3
2017-Jun-25 23:00N 58°16' E 011°15'4 8.0
2017-Jun-25 22:29N 58°19' E 011°21'4 7.5
2017-Jun-25 22:00N 58°21' E 011°26'0 0.0
2017-Jun-24 19:54N 58°21' E 011°26'0 0.9
2017-Jun-24 19:30N 58°21' E 011°26'2 5.0
2017-Jun-24 19:00N 58°20' E 011°23'3 5.2
2017-Jun-24 18:30N 58°18' E 011°19'510.1
2017-Jun-24 18:00N 58°15' E 011°11'0 0.3
2017-Jun-24 17:06N 58°15' E 011°11'0 0.1
2017-Jun-24 16:39N 58°15' E 011°11'0 1.2
2017-Jun-24 16:30N 58°15' E 011°11'2 3.6
2017-Jun-24 16:00N 58°14' E 011°10'2 0.7
2017-Jun-24 13:03N 58°12' E 011°11'0 0.0
2017-Jun-24 12:15N 58°12' E 011°11'0 0.3
2017-Jun-24 11:55N 58°12' E 011°10'1 2.9
2017-Jun-24 11:30N 58°12' E 011°12'711.3
2017-Jun-24 10:53N 58°05' E 011°13'512.7
2017-Jun-24 10:28N 57°60' E 011°15'612.6
2017-Jun-24 10:00N 57°54' E 011°16'612.7
2017-Jun-24 09:30N 57°48' E 011°18'612.3
2017-Jun-24 09:00N 57°42' E 011°21'612.6
2017-Jun-24 08:30N 57°38' E 011°30'510.8
2017-Jun-24 08:00N 57°35' E 011°39'5 9.9
2017-Jun-24 07:31N 57°39' E 011°44'5 9.3
2017-Jun-24 07:00N 57°41' E 011°52'0 0.5
2017-Jun-24 06:30N 57°41' E 011°53'0 0.0
2017-Jun-24 06:00N 57°41' E 011°53'0 0.0
2017-Jun-24 05:30N 57°41' E 011°53'0 0.0
2017-Jun-24 05:00N 57°41' E 011°53'0 0.0
2017-Jun-24 04:30N 57°41' E 011°53'0 0.0
2017-Jun-24 04:00N 57°41' E 011°53'0 0.0
2017-Jun-24 03:30N 57°41' E 011°53'0 0.0
2017-Jun-24 03:00N 57°41' E 011°53'0 0.0
2017-Jun-24 02:30N 57°41' E 011°53'0 0.0
2017-Jun-24 02:00N 57°41' E 011°53'0 0.0
2017-Jun-24 01:30N 57°41' E 011°53'0 0.0
2017-Jun-24 01:00N 57°41' E 011°53'0 0.0
2017-Jun-24 00:30N 57°41' E 011°53'0 0.0
2017-Jun-24 00:00N 57°41' E 011°53'0 0.0
2017-Jun-23 23:30N 57°41' E 011°53'0 0.0
2017-Jun-23 23:00N 57°41' E 011°53'0 0.0
2017-Jun-23 22:30N 57°41' E 011°53'0 0.0
2017-Jun-23 22:00N 57°41' E 011°53'0 0.0
2017-Jun-23 21:30N 57°41' E 011°53'0 0.0
2017-Jun-23 21:00N 57°41' E 011°53'0 0.0
2017-Jun-23 20:30N 57°41' E 011°53'0 0.0
2017-Jun-23 20:00N 57°41' E 011°53'0 0.0
2017-Jun-23 19:30N 57°41' E 011°53'0 0.0
2017-Jun-23 19:00N 57°41' E 011°53'0 0.0
2017-Jun-23 18:30N 57°41' E 011°53'0 0.0
2017-Jun-23 18:00N 57°41' E 011°53'0 0.0
2017-Jun-23 17:30N 57°41' E 011°53'0 0.0
2017-Jun-23 17:00N 57°41' E 011°53'0 0.0
2017-Jun-23 16:30N 57°41' E 011°53'0 0.0
2017-Jun-23 16:00N 57°41' E 011°53'0 0.0
2017-Jun-23 15:30N 57°41' E 011°53'0 0.0
2017-Jun-23 15:00N 57°41' E 011°53'0 0.0
2017-Jun-23 14:00N 57°41' E 011°53'0 0.0
2017-Jun-23 13:27N 57°41' E 011°53'0 0.0
2017-Jun-23 13:00N 57°41' E 011°53'0 0.0
2017-Jun-23 12:30N 57°41' E 011°53'0 0.0
2017-Jun-23 12:00N 57°41' E 011°53'0 0.0
2017-Jun-23 11:30N 57°41' E 011°53'0 0.0
2017-Jun-23 11:00N 57°41' E 011°53'0 0.0
2017-Jun-23 10:30N 57°41' E 011°53'0 0.0
2017-Jun-23 10:00N 57°41' E 011°53'0 0.0
2017-Jun-23 09:30N 57°41' E 011°53'0 0.0
2017-Jun-23 09:00N 57°41' E 011°53'0 0.0
2017-Jun-23 08:30N 57°41' E 011°53'0 0.0
2017-Jun-23 08:00N 57°41' E 011°53'0 0.0
2017-Jun-23 07:30N 57°41' E 011°53'0 0.0
2017-Jun-23 07:00N 57°41' E 011°53'0 0.0
2017-Jun-23 06:30N 57°41' E 011°53'0 0.0
2017-Jun-23 06:00N 57°41' E 011°53'0 0.0
2017-Jun-23 05:30N 57°41' E 011°53'0 0.0
2017-Jun-23 05:00N 57°41' E 011°53'0 0.0
2017-Jun-23 04:30N 57°41' E 011°53'0 0.0
2017-Jun-23 04:00N 57°41' E 011°53'0 0.0
2017-Jun-23 03:30N 57°41' E 011°53'0 0.0
2017-Jun-23 03:00N 57°41' E 011°53'0 0.0
2017-Jun-23 02:30N 57°41' E 011°53'0 0.0
2017-Jun-23 02:00N 57°41' E 011°53'0 0.0
2017-Jun-23 01:30N 57°41' E 011°53'0 0.0
2017-Jun-23 01:00N 57°41' E 011°53'0 0.0
2017-Jun-23 00:30N 57°41' E 011°53'0 0.2
2017-Jun-23 00:01N 57°41' E 011°53'2 3.4
2017-Jun-22 23:30N 57°41' E 011°50'5 9.8
2017-Jun-22 23:01N 57°38' E 011°42'5 9.0
2017-Jun-22 22:31N 57°37' E 011°34'3 5.6
2017-Jun-22 22:00N 57°38' E 011°29'611.3
2017-Jun-22 21:30N 57°39' E 011°19'612.6
2017-Jun-22 21:01N 57°43' E 011°10'712.5
2017-Jun-22 20:26N 57°47' E 010°59'612.7
2017-Jun-22 19:59N 57°50' E 010°49'612.6
2017-Jun-22 19:30N 57°52' E 010°39'812.8
2017-Jun-22 18:51N 57°53' E 010°23'8112.9
2017-Jun-22 12:33N 57°19' E 008°06'212.6
2017-Jun-22 12:26N 57°18' E 008°03'712.8
2017-Jun-22 11:53N 57°14' E 007°53'512.7
2017-Jun-22 11:30N 57°10' E 007°47'612.7
2017-Jun-22 11:00N 57°06' E 007°38'9912.5
2017-Jun-22 03:05N 55°34' E 006°29'113.1
2017-Jun-22 03:00N 55°33' E 006°29'713.1
2017-Jun-22 02:30N 55°27' E 006°29'713.2
2017-Jun-22 02:00N 55°20' E 006°29'713.2
2017-Jun-22 01:30N 55°14' E 006°29'713.2
2017-Jun-22 01:00N 55°07' E 006°29'913.1
2017-Jun-22 00:21N 54°59' E 006°29'613.4
2017-Jun-21 23:53N 54°52' E 006°29'513.4
2017-Jun-21 23:29N 54°47' E 006°29'1613.3
2017-Jun-21 22:17N 54°31' E 006°28'1213.3
2017-Jun-21 21:22N 54°19' E 006°28'3210.4
2017-Jun-21 18:16N 54°12' E 007°22'411.7
2017-Jun-21 17:56N 54°12' E 007°29'511.2
2017-Jun-21 17:30N 54°11' E 007°37'611.7
2017-Jun-21 17:00N 54°08' E 007°45'612.5
2017-Jun-21 16:30N 54°05' E 007°54'712.5
2017-Jun-21 15:58N 54°01' E 008°04'612.1
2017-Jun-21 15:28N 54°00' E 008°14'713.8
2017-Jun-21 15:00N 53°59' E 008°25'815.0
2017-Jun-21 14:30N 53°57' E 008°37'1413.6
2017-Jun-21 13:30N 53°51' E 008°57'713.3
2017-Jun-21 13:00N 53°53' E 009°08'510.8
2017-Jun-21 12:31N 53°52' E 009°17'612.2
2017-Jun-21 12:00N 53°47' E 009°23'611.0
2017-Jun-21 11:30N 53°43' E 009°29'510.2
2017-Jun-21 11:01N 53°38' E 009°32'5 9.9
2017-Jun-21 10:30N 53°35' E 009°38'4 8.8
2017-Jun-21 10:00N 53°34' E 009°46'4 8.4
2017-Jun-21 09:30N 53°33' E 009°52'3 5.2
2017-Jun-21 09:00N 53°32' E 009°56'1 2.8
2017-Jun-21 08:30N 53°30' E 009°58'0 0.0
2017-Jun-21 08:00N 53°30' E 009°58'0 0.0
2017-Jun-21 07:30N 53°30' E 009°58'0 0.0
2017-Jun-21 07:00N 53°30' E 009°58'0 0.0
2017-Jun-21 06:30N 53°30' E 009°58'0 0.0
2017-Jun-21 06:00N 53°30' E 009°58'0 0.0
2017-Jun-21 05:30N 53°30' E 009°58'0 0.0
2017-Jun-21 05:00N 53°30' E 009°58'0 0.0
2017-Jun-21 04:30N 53°30' E 009°58'0 0.0
2017-Jun-21 04:00N 53°30' E 009°58'0 0.0
2017-Jun-21 03:30N 53°30' E 009°58'0 0.0
2017-Jun-21 03:00N 53°30' E 009°58'0 0.0
2017-Jun-21 02:30N 53°30' E 009°58'0 0.0
2017-Jun-21 01:57N 53°30' E 009°58'0 0.0
2017-Jun-21 01:30N 53°30' E 009°58'0 0.0
2017-Jun-21 01:00N 53°30' E 009°58'0 0.0
2017-Jun-21 00:30N 53°30' E 009°58'0 0.0
2017-Jun-21 00:00N 53°30' E 009°58'0 0.0
2017-Jun-20 23:30N 53°30' E 009°58'0 0.0
2017-Jun-20 23:00N 53°30' E 009°58'0 0.0
2017-Jun-20 22:30N 53°30' E 009°58'0 0.0
2017-Jun-20 22:00N 53°30' E 009°58'0 0.0
2017-Jun-20 21:30N 53°30' E 009°58'0 0.0
2017-Jun-20 21:00N 53°30' E 009°58'0 0.0
2017-Jun-20 20:30N 53°30' E 009°58'0 0.0
2017-Jun-20 20:00N 53°30' E 009°58'0 0.0
2017-Jun-20 19:30N 53°30' E 009°58'0 0.0
2017-Jun-20 19:00N 53°30' E 009°58'0 0.0
2017-Jun-20 18:30N 53°30' E 009°58'0 0.0
2017-Jun-20 18:00N 53°30' E 009°58'0 0.0
2017-Jun-20 17:30N 53°30' E 009°58'0 0.0
2017-Jun-20 17:00N 53°30' E 009°58'0 0.0
2017-Jun-20 16:31N 53°30' E 009°58'0 0.0
2017-Jun-20 16:01N 53°30' E 009°58'1 1.1
2017-Jun-20 15:31N 53°31' E 009°57'3 5.9
2017-Jun-20 15:00N 53°33' E 009°53'4 7.2
2017-Jun-20 14:31N 53°33' E 009°47'8 8.2
2017-Jun-20 13:30N 53°37' E 009°34'4 8.1
2017-Jun-20 13:00N 53°40' E 009°31'4 8.9
2017-Jun-20 12:30N 53°44' E 009°27'5 9.1
2017-Jun-20 12:01N 53°48' E 009°23'5 9.5
2017-Jun-20 11:30N 53°51' E 009°18'5 9.9
2017-Jun-20 11:00N 53°53' E 009°10'4 8.7
2017-Jun-20 10:31N 53°52' E 009°03'611.1
2017-Jun-20 10:00N 53°50' E 008°54'510.0
2017-Jun-20 09:30N 53°51' E 008°45'510.0
2017-Jun-20 09:00N 53°55' E 008°40'510.7
2017-Jun-20 08:30N 53°58' E 008°32'610.7
2017-Jun-20 07:58N 53°59' E 008°23'6 9.7
2017-Jun-20 07:21N 53°60' E 008°13'2411.6
2017-Jun-20 05:15N 54°09' E 007°35'10312.2
2017-Jun-19 20:50N 53°58' E 004°40'511.8
2017-Jun-19 20:27N 53°54' E 004°35'711.9
2017-Jun-19 19:49N 53°49' E 004°26'411.9
2017-Jun-19 19:31N 53°46' E 004°22'612.0
2017-Jun-19 18:59N 53°43' E 004°13'812.2
2017-Jun-19 18:21N 53°38' E 004°03'512.4
2017-Jun-19 17:59N 53°35' E 003°57'612.4
2017-Jun-19 17:30N 53°31' E 003°49'611.9
2017-Jun-19 16:59N 53°26' E 003°43'612.0
2017-Jun-19 16:30N 53°21' E 003°39'611.9
2017-Jun-19 16:01N 53°16' E 003°35'611.7
2017-Jun-19 15:29N 53°10' E 003°31'6214.2
2017-Jun-19 11:07N 52°08' E 003°35'0 0.0
2017-Jun-19 11:00N 52°08' E 003°35'0 0.0
2017-Jun-19 10:30N 52°08' E 003°35'0 0.0
2017-Jun-19 10:00N 52°08' E 003°35'0 0.0
2017-Jun-19 09:30N 52°08' E 003°35'4 7.8
2017-Jun-19 09:00N 52°06' E 003°41'612.3
2017-Jun-19 08:31N 52°04' E 003°50'5 9.6
2017-Jun-19 08:00N 52°01' E 003°57'5 9.2
2017-Jun-19 07:30N 51°59' E 004°04'4 9.0
2017-Jun-19 07:00N 51°57' E 004°10'5 9.8
2017-Jun-19 06:31N 51°54' E 004°16'4 7.0
2017-Jun-19 06:00N 51°54' E 004°22'0 0.1
2017-Jun-19 05:30N 51°54' E 004°22'0 0.0
2017-Jun-19 05:00N 51°54' E 004°22'  
Track history (hours):
 
Tides and Currents Weather Stations Pressure Air Temp Water Temp Dewpoint Dewpoint Depression Visibility Wind Speed Wind Dir Waves Ship Positions

Elisalex Schulte

Last reported at 2017-Jun-29 04:43 UTC. Time now 2017-Jun-29 05:32 UTC.
Position N 54°07' W 005°03'.

Length 144 m; draft 8 m.

Type: Tanker. MMSI: 563052000.

Date/timePositionNaut miles runAvg speedWind from/ knotsBaromVisibWave heightAir tempDewpointWater temp
2017-Jun-29 04:43N 54°07' W 005°03'312.6
2017-Jun-29 04:30N 54°10' W 005°04'612.8
2017-Jun-29 04:00N 54°16' W 005°06'612.7
2017-Jun-29 03:30N 54°22' W 005°10'612.5
2017-Jun-29 03:00N 54°28' W 005°14'612.4
2017-Jun-29 02:30N 54°34' W 005°17'713.8
2017-Jun-29 02:00N 54°40' W 005°21'714.1
2017-Jun-29 01:30N 54°47' W 005°26'713.9
2017-Jun-29 01:00N 54°52' W 005°33'714.5
2017-Jun-29 00:30N 54°59' W 005°39'1014.5
2017-Jun-28 23:47N 55°07' W 005°50'515.8
2017-Jun-28 23:30N 55°11' W 005°54'816.5
2017-Jun-28 23:00N 55°18' W 006°02'714.3
2017-Jun-28 22:30N 55°22' W 006°13'714.3
2017-Jun-28 22:00N 55°24' W 006°25'713.5
2017-Jun-28 21:29N 55°27' W 006°36'613.3
2017-Jun-28 21:00N 55°29' W 006°46'612.1
2017-Jun-28 20:30N 55°34' W 006°54'612.0
2017-Jun-28 20:00N 55°39' W 006°59'611.9
2017-Jun-28 19:30N 55°44' W 007°04'22310.2
2017-Jun-27 21:38N 59°11' W 004°30'211.7
2017-Jun-27 21:28N 59°12' W 004°27'611.8
2017-Jun-27 21:00N 59°15' W 004°17'612.3
2017-Jun-27 20:30N 59°18' W 004°07'612.4
2017-Jun-27 20:00N 59°21' W 003°56'32011.8
2017-Jun-26 16:56N 57°53' E 005°55'511.4
2017-Jun-26 16:29N 57°52' E 006°05'511.1
2017-Jun-26 16:00N 57°51' E 006°15'1011.3
2017-Jun-26 15:09N 57°49' E 006°32'210.8
2017-Jun-26 14:59N 57°49' E 006°36'1111.1
2017-Jun-26 14:00N 57°48' E 006°56'611.3
2017-Jun-26 13:30N 57°47' E 007°07'611.1
2017-Jun-26 13:00N 57°47' E 007°17'510.9
2017-Jun-26 12:30N 57°47' E 007°27'2810.6
2017-Jun-26 09:50N 57°54' E 008°19'412.0
2017-Jun-26 09:30N 57°56' E 008°25'2011.8
2017-Jun-26 07:49N 58°07' E 008°56'412.4
2017-Jun-26 07:29N 58°10' E 009°01'57 8.8
2017-Jun-26 01:02N 58°16' E 010°49'0 7.4
2017-Jun-26 00:59N 58°16' E 010°50'4 7.7
2017-Jun-26 00:30N 58°15' E 010°56'4 7.5
2017-Jun-26 00:00N 58°14' E 011°04'4 7.0
2017-Jun-25 23:29N 58°14' E 011°10'3 6.3
2017-Jun-25 23:00N 58°16' E 011°15'4 8.0
2017-Jun-25 22:29N 58°19' E 011°21'4 7.5
2017-Jun-25 22:00N 58°21' E 011°26'0 0.0
2017-Jun-24 19:54N 58°21' E 011°26'0 0.9
2017-Jun-24 19:30N 58°21' E 011°26'2 5.0
2017-Jun-24 19:00N 58°20' E 011°23'3 5.2
2017-Jun-24 18:30N 58°18' E 011°19'510.1
2017-Jun-24 18:00N 58°15' E 011°11'0 0.3
2017-Jun-24 17:06N 58°15' E 011°11'0 0.1
2017-Jun-24 16:39N 58°15' E 011°11'0 1.2
2017-Jun-24 16:30N 58°15' E 011°11'2 3.6
2017-Jun-24 16:00N 58°14' E 011°10'2 0.7
2017-Jun-24 13:03N 58°12' E 011°11'0 0.0
2017-Jun-24 12:15N 58°12' E 011°11'0 0.3
2017-Jun-24 11:55N 58°12' E 011°10'1 2.9
2017-Jun-24 11:30N 58°12' E 011°12'711.3
2017-Jun-24 10:53N 58°05' E 011°13'512.7
2017-Jun-24 10:28N 57°60' E 011°15'612.6
2017-Jun-24 10:00N 57°54' E 011°16'612.7
2017-Jun-24 09:30N 57°48' E 011°18'612.3
2017-Jun-24 09:00N 57°42' E 011°21'612.6
2017-Jun-24 08:30N 57°38' E 011°30'510.8
2017-Jun-24 08:00N 57°35' E 011°39'5 9.9
2017-Jun-24 07:31N 57°39' E 011°44'5 9.3
2017-Jun-24 07:00N 57°41' E 011°52'0 0.5
2017-Jun-24 06:30N 57°41' E 011°53'0 0.0
2017-Jun-24 06:00N 57°41' E 011°53'0 0.0
2017-Jun-24 05:30N 57°41' E 011°53'0 0.0
2017-Jun-24 05:00N 57°41' E 011°53'0 0.0
2017-Jun-24 04:30N 57°41' E 011°53'0 0.0
2017-Jun-24 04:00N 57°41' E 011°53'0 0.0
2017-Jun-24 03:30N 57°41' E 011°53'0 0.0
2017-Jun-24 03:00N 57°41' E 011°53'0 0.0
2017-Jun-24 02:30N 57°41' E 011°53'0 0.0
2017-Jun-24 02:00N 57°41' E 011°53'0 0.0
2017-Jun-24 01:30N 57°41' E 011°53'0 0.0
2017-Jun-24 01:00N 57°41' E 011°53'0 0.0
2017-Jun-24 00:30N 57°41' E 011°53'0 0.0
2017-Jun-24 00:00N 57°41' E 011°53'0 0.0
2017-Jun-23 23:30N 57°41' E 011°53'0 0.0
2017-Jun-23 23:00N 57°41' E 011°53'0 0.0
2017-Jun-23 22:30N 57°41' E 011°53'0 0.0
2017-Jun-23 22:00N 57°41' E 011°53'0 0.0
2017-Jun-23 21:30N 57°41' E 011°53'0 0.0
2017-Jun-23 21:00N 57°41' E 011°53'0 0.0
2017-Jun-23 20:30N 57°41' E 011°53'0 0.0
2017-Jun-23 20:00N 57°41' E 011°53'0 0.0
2017-Jun-23 19:30N 57°41' E 011°53'0 0.0
2017-Jun-23 19:00N 57°41' E 011°53'0 0.0
2017-Jun-23 18:30N 57°41' E 011°53'0 0.0
2017-Jun-23 18:00N 57°41' E 011°53'0 0.0
2017-Jun-23 17:30N 57°41' E 011°53'0 0.0
2017-Jun-23 17:00N 57°41' E 011°53'0 0.0
2017-Jun-23 16:30N 57°41' E 011°53'0 0.0
2017-Jun-23 16:00N 57°41' E 011°53'0 0.0
2017-Jun-23 15:30N 57°41' E 011°53'0 0.0
2017-Jun-23 15:00N 57°41' E 011°53'0 0.0
2017-Jun-23 14:00N 57°41' E 011°53'0 0.0
2017-Jun-23 13:27N 57°41' E 011°53'0 0.0
2017-Jun-23 13:00N 57°41' E 011°53'0 0.0
2017-Jun-23 12:30N 57°41' E 011°53'0 0.0
2017-Jun-23 12:00N 57°41' E 011°53'0 0.0
2017-Jun-23 11:30N 57°41' E 011°53'0 0.0
2017-Jun-23 11:00N 57°41' E 011°53'0 0.0
2017-Jun-23 10:30N 57°41' E 011°53'0 0.0
2017-Jun-23 10:00N 57°41' E 011°53'0 0.0
2017-Jun-23 09:30N 57°41' E 011°53'0 0.0
2017-Jun-23 09:00N 57°41' E 011°53'0 0.0
2017-Jun-23 08:30N 57°41' E 011°53'0 0.0
2017-Jun-23 08:00N 57°41' E 011°53'0 0.0
2017-Jun-23 07:30N 57°41' E 011°53'0 0.0
2017-Jun-23 07:00N 57°41' E 011°53'0 0.0
2017-Jun-23 06:30N 57°41' E 011°53'0 0.0
2017-Jun-23 06:00N 57°41' E 011°53'0 0.0
2017-Jun-23 05:30N 57°41' E 011°53'0 0.0
2017-Jun-23 05:00N 57°41' E 011°53'0 0.0
2017-Jun-23 04:30N 57°41' E 011°53'0 0.0
2017-Jun-23 04:00N 57°41' E 011°53'0 0.0
2017-Jun-23 03:30N 57°41' E 011°53'0 0.0
2017-Jun-23 03:00N 57°41' E 011°53'0 0.0
2017-Jun-23 02:30N 57°41' E 011°53'0 0.0
2017-Jun-23 02:00N 57°41' E 011°53'0 0.0
2017-Jun-23 01:30N 57°41' E 011°53'0 0.0
2017-Jun-23 01:00N 57°41' E 011°53'0 0.0
2017-Jun-23 00:30N 57°41' E 011°53'0 0.2
2017-Jun-23 00:01N 57°41' E 011°53'2 3.4
2017-Jun-22 23:30N 57°41' E 011°50'5 9.8
2017-Jun-22 23:01N 57°38' E 011°42'5 9.0
2017-Jun-22 22:31N 57°37' E 011°34'3 5.6
2017-Jun-22 22:00N 57°38' E 011°29'611.3
2017-Jun-22 21:30N 57°39' E 011°19'612.6
2017-Jun-22 21:01N 57°43' E 011°10'712.5
2017-Jun-22 20:26N 57°47' E 010°59'612.7
2017-Jun-22 19:59N 57°50' E 010°49'612.6
2017-Jun-22 19:30N 57°52' E 010°39'812.8
2017-Jun-22 18:51N 57°53' E 010°23'8112.9
2017-Jun-22 12:33N 57°19' E 008°06'212.6
2017-Jun-22 12:26N 57°18' E 008°03'712.8
2017-Jun-22 11:53N 57°14' E 007°53'512.7
2017-Jun-22 11:30N 57°10' E 007°47'612.7
2017-Jun-22 11:00N 57°06' E 007°38'9912.5
2017-Jun-22 03:05N 55°34' E 006°29'113.1
2017-Jun-22 03:00N 55°33' E 006°29'713.1
2017-Jun-22 02:30N 55°27' E 006°29'713.2
2017-Jun-22 02:00N 55°20' E 006°29'713.2
2017-Jun-22 01:30N 55°14' E 006°29'713.2
2017-Jun-22 01:00N 55°07' E 006°29'913.1
2017-Jun-22 00:21N 54°59' E 006°29'613.4
2017-Jun-21 23:53N 54°52' E 006°29'513.4
2017-Jun-21 23:29N 54°47' E 006°29'1613.3
2017-Jun-21 22:17N 54°31' E 006°28'1213.3
2017-Jun-21 21:22N 54°19' E 006°28'3210.4
2017-Jun-21 18:16N 54°12' E 007°22'411.7
2017-Jun-21 17:56N 54°12' E 007°29'511.2
2017-Jun-21 17:30N 54°11' E 007°37'611.7
2017-Jun-21 17:00N 54°08' E 007°45'612.5
2017-Jun-21 16:30N 54°05' E 007°54'712.5
2017-Jun-21 15:58N 54°01' E 008°04'612.1
2017-Jun-21 15:28N 54°00' E 008°14'713.8
2017-Jun-21 15:00N 53°59' E 008°25'815.0
2017-Jun-21 14:30N 53°57' E 008°37'1413.6
2017-Jun-21 13:30N 53°51' E 008°57'713.3
2017-Jun-21 13:00N 53°53' E 009°08'510.8
2017-Jun-21 12:31N 53°52' E 009°17'612.2
2017-Jun-21 12:00N 53°47' E 009°23'611.0
2017-Jun-21 11:30N 53°43' E 009°29'510.2
2017-Jun-21 11:01N 53°38' E 009°32'5 9.9
2017-Jun-21 10:30N 53°35' E 009°38'4 8.8
2017-Jun-21 10:00N 53°34' E 009°46'4 8.4
2017-Jun-21 09:30N 53°33' E 009°52'3 5.2
2017-Jun-21 09:00N 53°32' E 009°56'1 2.8
2017-Jun-21 08:30N 53°30' E 009°58'0 0.0
2017-Jun-21 08:00N 53°30' E 009°58'0 0.0
2017-Jun-21 07:30N 53°30' E 009°58'0 0.0
2017-Jun-21 07:00N 53°30' E 009°58'0 0.0
2017-Jun-21 06:30N 53°30' E 009°58'0 0.0
2017-Jun-21 06:00N 53°30' E 009°58'0 0.0
2017-Jun-21 05:30N 53°30' E 009°58'0 0.0
2017-Jun-21 05:00N 53°30' E 009°58'0 0.0
2017-Jun-21 04:30N 53°30' E 009°58'0 0.0
2017-Jun-21 04:00N 53°30' E 009°58'0 0.0
2017-Jun-21 03:30N 53°30' E 009°58'0 0.0
2017-Jun-21 03:00N 53°30' E 009°58'0 0.0
2017-Jun-21 02:30N 53°30' E 009°58'0 0.0
2017-Jun-21 01:57N 53°30' E 009°58'0 0.0
2017-Jun-21 01:30N 53°30' E 009°58'0 0.0
2017-Jun-21 01:00N 53°30' E 009°58'0 0.0
2017-Jun-21 00:30N 53°30' E 009°58'0 0.0
2017-Jun-21 00:00N 53°30' E 009°58'0 0.0
2017-Jun-20 23:30N 53°30' E 009°58'0 0.0
2017-Jun-20 23:00N 53°30' E 009°58'0 0.0
2017-Jun-20 22:30N 53°30' E 009°58'0 0.0
2017-Jun-20 22:00N 53°30' E 009°58'0 0.0
2017-Jun-20 21:30N 53°30' E 009°58'0 0.0
2017-Jun-20 21:00N 53°30' E 009°58'0 0.0
2017-Jun-20 20:30N 53°30' E 009°58'0 0.0
2017-Jun-20 20:00N 53°30' E 009°58'0 0.0
2017-Jun-20 19:30N 53°30' E 009°58'0 0.0
2017-Jun-20 19:00N 53°30' E 009°58'0 0.0
2017-Jun-20 18:30N 53°30' E 009°58'0 0.0
2017-Jun-20 18:00N 53°30' E 009°58'0 0.0
2017-Jun-20 17:30N 53°30' E 009°58'0 0.0
2017-Jun-20 17:00N 53°30' E 009°58'0 0.0
2017-Jun-20 16:31N 53°30' E 009°58'0 0.0
2017-Jun-20 16:01N 53°30' E 009°58'1 1.1
2017-Jun-20 15:31N 53°31' E 009°57'3 5.9
2017-Jun-20 15:00N 53°33' E 009°53'4 7.2
2017-Jun-20 14:31N 53°33' E 009°47'8 8.2
2017-Jun-20 13:30N 53°37' E 009°34'4 8.1
2017-Jun-20 13:00N 53°40' E 009°31'4 8.9
2017-Jun-20 12:30N 53°44' E 009°27'5 9.1
2017-Jun-20 12:01N 53°48' E 009°23'5 9.5
2017-Jun-20 11:30N 53°51' E 009°18'5 9.9
2017-Jun-20 11:00N 53°53' E 009°10'4 8.7
2017-Jun-20 10:31N 53°52' E 009°03'611.1
2017-Jun-20 10:00N 53°50' E 008°54'510.0
2017-Jun-20 09:30N 53°51' E 008°45'510.0
2017-Jun-20 09:00N 53°55' E 008°40'510.7
2017-Jun-20 08:30N 53°58' E 008°32'610.7
2017-Jun-20 07:58N 53°59' E 008°23'6 9.7
2017-Jun-20 07:21N 53°60' E 008°13'2411.6
2017-Jun-20 05:15N 54°09' E 007°35'10312.2
2017-Jun-19 20:50N 53°58' E 004°40'511.8
2017-Jun-19 20:27N 53°54' E 004°35'711.9
2017-Jun-19 19:49N 53°49' E 004°26'411.9
2017-Jun-19 19:31N 53°46' E 004°22'612.0
2017-Jun-19 18:59N 53°43' E 004°13'812.2
2017-Jun-19 18:21N 53°38' E 004°03'512.4
2017-Jun-19 17:59N 53°35' E 003°57'612.4
2017-Jun-19 17:30N 53°31' E 003°49'611.9
2017-Jun-19 16:59N 53°26' E 003°43'612.0
2017-Jun-19 16:30N 53°21' E 003°39'611.9
2017-Jun-19 16:01N 53°16' E 003°35'611.7
2017-Jun-19 15:29N 53°10' E 003°31'6214.2
2017-Jun-19 11:07N 52°08' E 003°35'0 0.0
2017-Jun-19 11:00N 52°08' E 003°35'0 0.0
2017-Jun-19 10:30N 52°08' E 003°35'0 0.0
2017-Jun-19 10:00N 52°08' E 003°35'0 0.0
2017-Jun-19 09:30N 52°08' E 003°35'4 7.8
2017-Jun-19 09:00N 52°06' E 003°41'612.3
2017-Jun-19 08:31N 52°04' E 003°50'5 9.6
2017-Jun-19 08:00N 52°01' E 003°57'5 9.2
2017-Jun-19 07:30N 51°59' E 004°04'4 9.0
2017-Jun-19 07:00N 51°57' E 004°10'5 9.8
2017-Jun-19 06:31N 51°54' E 004°16'4 7.0
2017-Jun-19 06:00N 51°54' E 004°22'0 0.1
2017-Jun-19 05:30N 51°54' E 004°22'0 0.0
2017-Jun-19 05:00N 51°54' E 004°22'  

Dump ship's entire track history